createdAt,value
2022-12-18T00:04:49.347Z,49.88
2022-12-18T00:09:50.854Z,49.98
2022-12-18T00:14:52.382Z,50.35
2022-12-18T00:19:53.880Z,50.15
2022-12-18T00:24:55.421Z,50.39
2022-12-18T00:29:56.937Z,49.80
2022-12-18T00:34:58.519Z,50.42
2022-12-18T00:40:00.054Z,50.35
2022-12-18T00:45:01.609Z,50.68
2022-12-18T00:50:03.846Z,50.18
2022-12-18T00:55:06.629Z,50.42
2022-12-18T01:00:11.013Z,50.34
2022-12-18T01:05:13.449Z,50.43
2022-12-18T01:10:14.999Z,50.09
2022-12-18T01:15:16.828Z,50.27
2022-12-18T01:20:18.517Z,50.48
2022-12-18T01:25:20.781Z,50.10
2022-12-18T01:30:22.289Z,49.86
2022-12-18T01:35:23.833Z,50.39
2022-12-18T01:40:25.491Z,50.32
2022-12-18T01:45:29.806Z,50.52
2022-12-18T01:50:43.059Z,50.13
2022-12-18T01:55:49.403Z,50.49
2022-12-18T02:00:51.113Z,50.71
2022-12-18T02:06:15.920Z,50.93
2022-12-18T02:11:30.830Z,50.93
2022-12-18T02:17:13.699Z,50.54
2022-12-18T02:22:21.599Z,50.56
2022-12-18T02:27:23.717Z,50.84
2022-12-18T02:32:33.797Z,50.53
2022-12-18T02:37:36.834Z,50.82
2022-12-18T02:42:41.359Z,50.98
2022-12-18T02:47:48.168Z,51.08
2022-12-18T02:53:18.394Z,51.10
2022-12-18T02:58:57.854Z,50.74
2022-12-18T03:04:18.574Z,50.86
2022-12-18T03:09:25.601Z,50.70
2022-12-18T03:14:30.298Z,50.74
2022-12-18T03:19:34.207Z,50.78
2022-12-18T03:24:40.452Z,50.88
2022-12-18T03:29:53.677Z,51.11
2022-12-18T03:35:05.822Z,50.77
2022-12-18T03:40:11.676Z,50.76
2022-12-18T03:45:19.661Z,51.02
2022-12-18T03:50:27.538Z,50.58
2022-12-18T03:55:35.505Z,50.57
2022-12-18T04:00:40.516Z,50.24
2022-12-18T04:05:46.645Z,50.46
2022-12-18T04:10:49.817Z,50.69
2022-12-18T04:15:52.069Z,50.61
2022-12-18T04:20:55.277Z,51.26
2022-12-18T04:25:58.196Z,51.20
2022-12-18T04:31:29.244Z,50.74
2022-12-18T04:36:31.604Z,51.30
2022-12-18T04:41:33.257Z,50.92
2022-12-18T04:46:35.269Z,51.39
2022-12-18T04:51:37.525Z,51.29
2022-12-18T04:56:39.070Z,51.06
2022-12-18T05:01:40.889Z,51.25
2022-12-18T05:06:42.603Z,50.86
2022-12-18T05:11:44.301Z,50.65
2022-12-18T05:16:47.844Z,51.05
2022-12-18T05:21:49.408Z,50.92
2022-12-18T05:26:50.961Z,51.19
2022-12-18T05:31:52.587Z,51.09
2022-12-18T05:36:54.177Z,50.87
2022-12-18T05:41:55.664Z,50.81
2022-12-18T05:46:57.222Z,51.63
2022-12-18T05:51:58.754Z,50.85
2022-12-18T05:57:00.269Z,51.33
2022-12-18T06:02:01.939Z,51.04
2022-12-18T06:07:04.933Z,50.81
2022-12-18T06:12:06.768Z,51.37
2022-12-18T06:17:08.287Z,50.57
2022-12-18T06:22:09.786Z,51.20
2022-12-18T06:27:11.267Z,50.42
2022-12-18T06:32:12.850Z,50.79
2022-12-18T06:37:14.333Z,50.61
2022-12-18T06:42:15.844Z,50.86
2022-12-18T06:47:17.407Z,50.84
2022-12-18T06:52:18.919Z,50.92
2022-12-18T06:57:20.426Z,50.95
2022-12-18T07:02:22.082Z,50.79
2022-12-18T07:07:23.782Z,50.78
2022-12-18T07:12:25.269Z,50.66
2022-12-18T07:17:26.985Z,50.50
2022-12-18T07:22:28.555Z,50.65
2022-12-18T07:27:30.053Z,50.09
2022-12-18T07:32:31.727Z,50.14
2022-12-18T07:37:33.207Z,50.23
2022-12-18T07:42:35.763Z,50.19
2022-12-18T07:47:37.476Z,49.97
2022-12-18T07:52:39.032Z,50.36
2022-12-18T07:58:00.799Z,50.19
2022-12-18T08:03:02.800Z,50.42
2022-12-18T08:08:04.493Z,50.28
2022-12-18T08:13:05.997Z,50.47
2022-12-18T08:18:11.447Z,50.27
2022-12-18T08:23:15.686Z,50.63
2022-12-18T08:28:17.508Z,50.94
2022-12-18T08:33:19.091Z,50.74
2022-12-18T08:38:20.615Z,50.52
2022-12-18T08:43:41.414Z,50.73
2022-12-18T08:48:43.318Z,50.32
2022-12-18T08:53:45.489Z,50.73
2022-12-18T08:58:47.030Z,50.52
2022-12-18T09:03:50.144Z,50.67
2022-12-18T09:08:51.670Z,50.91
2022-12-18T09:13:54.867Z,50.66
2022-12-18T09:19:00.507Z,50.46
2022-12-18T09:24:02.207Z,50.68
2022-12-18T09:29:04.606Z,50.85
2022-12-18T09:34:06.203Z,50.54
2022-12-18T09:39:08.823Z,50.61
2022-12-18T09:44:28.075Z,50.94
2022-12-18T09:49:34.212Z,50.80
2022-12-18T09:54:47.224Z,50.33
2022-12-18T10:00:04.291Z,50.88
2022-12-18T10:05:16.480Z,50.35
2022-12-18T10:10:32.777Z,50.15
2022-12-18T10:15:46.170Z,50.64
2022-12-18T10:20:52.586Z,50.19
2022-12-18T10:25:57.141Z,50.37
2022-12-18T10:30:59.402Z,50.11
2022-12-18T10:36:01.581Z,49.93
2022-12-18T10:41:06.520Z,50.42
2022-12-18T10:46:08.834Z,49.83
2022-12-18T10:51:12.915Z,50.29
2022-12-18T10:56:21.454Z,50.37
2022-12-18T11:01:23.500Z,50.08
2022-12-18T11:06:26.158Z,50.10
2022-12-18T11:11:28.653Z,49.62
2022-12-18T11:16:35.578Z,50.02
2022-12-18T11:21:41.876Z,50.12
2022-12-18T11:26:44.337Z,50.00
2022-12-18T11:31:45.988Z,49.53
2022-12-18T11:36:49.143Z,49.91
2022-12-18T11:42:11.635Z,49.39
2022-12-18T11:47:50.979Z,49.83
2022-12-18T11:52:56.727Z,49.51
2022-12-18T11:58:15.487Z,49.25
2022-12-18T12:03:25.026Z,49.14
2022-12-18T12:08:45.467Z,48.98
2022-12-18T12:14:22.200Z,48.96
2022-12-18T12:19:52.623Z,49.39
2022-12-18T12:25:19.813Z,48.91
2022-12-18T12:30:40.525Z,49.03
2022-12-18T12:36:21.957Z,48.83
2022-12-18T12:41:46.658Z,49.60
2022-12-18T12:46:49.997Z,49.54
2022-12-18T12:52:01.638Z,49.00
2022-12-18T12:57:18.503Z,48.81
2022-12-18T13:02:33.501Z,49.21
2022-12-18T13:07:59.347Z,49.54
2022-12-18T13:13:18.625Z,48.87
2022-12-18T13:18:26.346Z,49.49
2022-12-18T13:23:30.874Z,49.17
2022-12-18T13:28:47.809Z,49.15
2022-12-18T13:39:26.522Z,48.93
2022-12-18T13:44:38.697Z,48.51
2022-12-18T13:49:44.830Z,48.85
2022-12-18T13:54:52.051Z,48.68
2022-12-18T13:59:53.894Z,48.53
2022-12-18T14:04:56.445Z,48.69
2022-12-18T14:10:12.671Z,48.44
2022-12-18T14:15:34.700Z,48.59
2022-12-18T14:20:37.826Z,48.72
2022-12-18T14:25:39.398Z,48.39
2022-12-18T14:30:46.819Z,48.50
2022-12-18T14:36:01.608Z,47.96
2022-12-18T14:41:13.602Z,48.16
2022-12-18T14:46:40.476Z,47.60
2022-12-18T14:51:49.401Z,47.92
2022-12-18T14:56:58.044Z,47.53
2022-12-18T15:02:19.804Z,48.34
2022-12-18T15:07:24.213Z,47.75
2022-12-18T15:12:35.406Z,47.92
2022-12-18T15:17:37.011Z,47.88
2022-12-18T15:22:38.675Z,48.08
2022-12-18T15:27:47.632Z,48.44
2022-12-18T15:32:51.135Z,48.00
2022-12-18T15:37:53.299Z,47.98
2022-12-18T15:43:15.114Z,47.93
2022-12-18T15:48:23.835Z,47.93
2022-12-18T15:53:28.990Z,48.06
2022-12-18T15:58:30.512Z,47.67
2022-12-18T16:03:32.328Z,48.02
2022-12-18T16:08:34.062Z,47.84
2022-12-18T16:13:35.574Z,47.81
2022-12-18T16:18:37.061Z,47.99
2022-12-18T16:23:39.090Z,48.01
2022-12-18T16:28:45.278Z,47.92
2022-12-18T16:33:49.750Z,47.56
2022-12-18T16:38:51.234Z,47.72
2022-12-18T16:43:54.973Z,47.75
2022-12-18T16:48:59.422Z,47.79
2022-12-18T16:54:02.982Z,47.25
2022-12-18T16:59:09.937Z,47.93
2022-12-18T17:04:11.579Z,47.59
2022-12-18T17:09:15.791Z,47.71
2022-12-18T17:14:20.483Z,47.93
2022-12-18T17:19:22.783Z,47.69
2022-12-18T17:24:24.503Z,47.87
2022-12-18T17:29:26.046Z,47.94
2022-12-18T17:34:28.330Z,48.00
2022-12-18T17:39:30.750Z,47.94
2022-12-18T17:44:34.287Z,47.91
2022-12-18T17:49:36.134Z,48.25
2022-12-18T17:54:39.843Z,48.24
2022-12-18T17:59:41.886Z,48.08
2022-12-18T18:04:43.551Z,48.10
2022-12-18T18:09:45.140Z,48.17
2022-12-18T18:14:47.014Z,47.78
2022-12-18T18:19:49.500Z,48.07
2022-12-18T18:24:51.344Z,48.29
2022-12-18T18:29:52.967Z,47.92
2022-12-18T18:34:54.520Z,48.09
2022-12-18T18:39:56.885Z,48.43
2022-12-18T18:44:58.462Z,48.91
2022-12-18T18:50:00.202Z,48.79
2022-12-18T18:55:13.398Z,48.62
2022-12-18T19:00:18.308Z,48.84
2022-12-18T19:05:20.003Z,48.92
2022-12-18T19:10:21.496Z,48.97
2022-12-18T19:15:23.389Z,48.85
2022-12-18T19:20:25.186Z,49.15
2022-12-18T19:25:38.097Z,48.89
2022-12-18T19:30:43.419Z,49.29
2022-12-18T19:35:44.981Z,49.26
2022-12-18T19:40:46.792Z,48.99
2022-12-18T19:45:54.874Z,49.47
2022-12-18T19:50:56.553Z,49.35
2022-12-18T19:55:58.365Z,49.17
2022-12-18T20:00:59.989Z,49.65
2022-12-18T20:06:27.105Z,49.54
2022-12-18T20:11:30.013Z,49.71
2022-12-18T20:16:31.714Z,50.06
2022-12-18T20:21:33.473Z,49.88
2022-12-18T20:26:35.056Z,49.79
2022-12-18T20:31:36.673Z,49.70
2022-12-18T20:36:38.729Z,49.71
2022-12-18T20:41:42.930Z,49.81
2022-12-18T20:46:44.486Z,49.84
2022-12-18T20:51:46.298Z,50.01
2022-12-18T20:56:48.031Z,50.40
2022-12-18T21:01:49.902Z,49.89
2022-12-18T21:07:00.577Z,50.30
2022-12-18T21:12:22.590Z,50.39
2022-12-18T21:17:24.302Z,50.57
2022-12-18T21:22:28.772Z,50.60
2022-12-18T21:27:30.321Z,50.67
2022-12-18T21:32:33.657Z,50.94
2022-12-18T21:37:35.329Z,50.91
2022-12-18T21:42:55.715Z,50.86
2022-12-18T21:47:57.528Z,50.75
2022-12-18T21:52:59.096Z,50.80
2022-12-18T21:58:00.677Z,51.11
2022-12-18T22:03:17.383Z,50.90
2022-12-18T22:08:20.729Z,51.28
2022-12-18T22:13:22.434Z,51.29
2022-12-18T22:18:24.044Z,51.20
2022-12-18T22:23:25.603Z,51.28
2022-12-18T22:28:45.861Z,51.30
2022-12-18T22:33:47.403Z,51.40
2022-12-18T22:38:49.023Z,51.43
2022-12-18T22:43:50.669Z,51.31
2022-12-18T22:48:52.251Z,51.44
2022-12-18T22:53:54.079Z,51.55
2022-12-18T22:58:56.571Z,51.65
2022-12-18T23:04:00.015Z,51.44
2022-12-18T23:09:01.586Z,51.65
2022-12-18T23:14:03.487Z,51.73
2022-12-18T23:19:05.736Z,51.79
2022-12-18T23:24:07.803Z,51.66
2022-12-18T23:29:09.492Z,51.84
2022-12-18T23:34:13.886Z,51.78
2022-12-18T23:39:28.827Z,51.75
2022-12-18T23:44:30.772Z,51.64
2022-12-18T23:49:32.440Z,51.60
2022-12-18T23:54:34.152Z,51.65
2022-12-18T23:59:35.660Z,51.79
